Time;durP1;ratioP1;P1;durP2;ratioP2;P2;SDS_P1;SDS_P2;PMS_P1;PMS_P2;Temp;Humidity;BMP_temperature;BMP_pressure;BME280_temperature;BME280_humidity;BME280_pressure;Samples;Min_cycle;Max_cycle;Signal;HPM_P1;HPM_P2
2022/10/31 00:01:26;;;;;;;0.80;0.80;;;;;;;17.64;88.21;100480.19;5078956;28;20206;-73
2022/10/31 00:03:54;;;;;;;0.80;0.80;;;;;;;17.48;85.68;100478.53;5079258;28;20198;-73
2022/10/31 00:06:21;;;;;;;1.95;1.00;;;;;;;17.33;86.26;100472.53;5078107;28;20198;-72
2022/10/31 00:08:48;;;;;;;0.68;0.68;;;;;;;17.21;85.11;100461.22;5074034;28;20198;-70
2022/10/31 00:11:16;;;;;;;0.70;0.70;;;;;;;17.63;85.51;100486.31;5072825;28;20683;-71
2022/10/31 00:13:43;;;;;;;0.80;0.80;;;;;;;17.62;83.83;100492.47;5076221;28;20913;-74
2022/10/31 00:16:15;;;;;;;0.80;0.80;;;;;;;17.32;82.10;100420.09;5039623;28;20292;-72
2022/10/31 00:18:41;;;;;;;0.70;0.70;;;;;;;17.61;82.12;100494.22;5075726;28;20649;-72
2022/10/31 00:21:08;;;;;;;1.10;1.10;;;;;;;17.44;82.05;100455.84;5076787;28;20210;-72
2022/10/31 00:23:35;;;;;;;0.80;0.80;;;;;;;17.63;82.55;100475.81;5076032;28;20208;-73
2022/10/31 00:26:03;;;;;;;0.80;0.80;;;;;;;17.69;82.56;100489.75;5076959;28;20704;-72
2022/10/31 00:28:31;;;;;;;2.40;1.83;;;;;;;17.60;82.25;100478.47;5078764;28;20206;-72
2022/10/31 00:31:00;;;;;;;0.80;0.80;;;;;;;17.56;82.58;100487.22;5076765;28;20607;-72
2022/10/31 00:33:27;;;;;;;0.80;0.80;;;;;;;17.44;83.74;100511.78;5076353;28;20225;-72
2022/10/31 00:35:54;;;;;;;0.73;0.73;;;;;;;17.20;85.45;100499.66;5079104;28;20694;-73
2022/10/31 00:38:21;;;;;;;0.70;0.70;;;;;;;17.30;85.91;100511.81;5077710;28;20263;-74
2022/10/31 00:40:48;;;;;;;0.80;0.80;;;;;;;17.28;86.18;100505.75;5037934;28;20648;-72
2022/10/31 00:43:14;;;;;;;0.90;0.90;;;;;;;17.09;87.14;100525.03;5022830;28;20207;-72
2022/10/31 00:45:44;;;;;;;1.40;1.38;;;;;;;17.25;87.39;100528.47;5074855;28;20288;-75
2022/10/31 00:48:11;;;;;;;0.73;0.73;;;;;;;17.11;87.42;100539.03;5077327;28;20203;-72
2022/10/31 00:50:38;;;;;;;0.80;0.80;;;;;;;17.19;87.14;100534.59;5081388;28;20237;-74
2022/10/31 00:53:05;;;;;;;1.35;1.35;;;;;;;17.13;86.83;100523.28;5074854;28;20203;-72
2022/10/31 00:55:32;;;;;;;0.90;0.90;;;;;;;17.31;86.05;100539.78;5077650;28;20194;-73
2022/10/31 00:57:59;;;;;;;0.80;0.80;;;;;;;17.06;87.08;100538.16;5075146;28;20206;-74
2022/10/31 01:00:27;;;;;;;0.70;0.70;;;;;;;16.79;87.51;100512.06;5056431;28;20222;-74
2022/10/31 01:02:55;;;;;;;0.90;0.90;;;;;;;17.16;87.81;100546.84;5074580;28;20191;-74
2022/10/31 01:05:22;;;;;;;1.00;1.00;;;;;;;17.02;87.46;100525.94;5077720;28;20195;-72
2022/10/31 01:07:48;;;;;;;1.02;1.02;;;;;;;17.04;87.16;100537.31;5076892;28;20202;-71
2022/10/31 01:10:16;;;;;;;0.80;0.80;;;;;;;17.06;86.98;100538.16;5078467;28;20707;-74
2022/10/31 01:12:44;;;;;;;0.88;0.88;;;;;;;17.04;87.43;100531.19;5053822;28;20222;-72
2022/10/31 01:15:12;;;;;;;0.77;0.77;;;;;;;16.85;87.30;100507.69;5076845;28;20194;-72
2022/10/31 01:17:39;;;;;;;0.70;0.70;;;;;;;17.06;86.71;100530.28;5076634;28;20207;-73
2022/10/31 01:20:15;;;;;;;0.85;0.85;;;;;;;17.00;86.49;100501.50;5074698;28;20218;-72
2022/10/31 01:22:43;;;;;;;1.15;1.15;;;;;;;17.04;86.67;100513.72;5073932;28;20202;-72
2022/10/31 01:25:10;;;;;;;0.80;0.80;;;;;;;17.14;86.21;100515.41;5040184;28;20914;-72
2022/10/31 01:27:37;;;;;;;0.70;0.70;;;;;;;17.16;85.58;100515.41;5080524;28;20209;-72
2022/10/31 01:30:05;;;;;;;0.80;0.80;;;;;;;17.26;85.32;100510.13;5075014;28;20207;-73
2022/10/31 01:32:32;;;;;;;0.75;0.75;;;;;;;17.20;85.13;100499.66;5042067;28;20206;-72
2022/10/31 01:34:58;;;;;;;0.70;0.70;;;;;;;17.20;84.71;100494.41;5068925;28;20199;-72
2022/10/31 01:37:27;;;;;;;0.70;0.70;;;;;;;17.30;84.73;100492.63;5080037;28;20186;-73
2022/10/31 01:39:53;;;;;;;0.80;0.80;;;;;;;17.18;85.20;100517.16;5055943;28;20276;-73
2022/10/31 01:42:23;;;;;;;0.90;0.90;;;;;;;17.24;85.47;100517.13;5073891;28;20202;-73
2022/10/31 01:44:55;;;;;;;0.90;0.90;;;;;;;17.20;85.77;100525.00;5057143;28;20222;-72
2022/10/31 01:47:31;;;;;;;0.90;0.90;;;;;;;17.01;86.55;100500.66;5073171;28;20199;-73
2022/10/31 01:50:00;;;;;;;0.80;0.80;;;;;;;17.04;87.49;100534.69;5078407;28;20206;-73
2022/10/31 01:52:33;;;;;;;0.77;0.77;;;;;;;16.94;88.66;100525.13;5075121;28;20210;-72
2022/10/31 01:55:04;;;;;;;0.75;0.75;;;;;;;16.41;89.36;100451.06;5074715;28;20207;-73
2022/10/31 01:57:33;;;;;;;0.80;0.80;;;;;;;16.61;91.17;100517.38;5075114;28;20637;-73
2022/10/31 02:00:04;;;;;;;0.70;0.70;;;;;;;16.44;91.21;100474.63;5075306;28;20225;-73
2022/10/31 02:02:32;;;;;;;0.70;0.70;;;;;;;16.36;91.88;100501.69;5074297;28;20252;-73
2022/10/31 02:05:02;;;;;;;0.80;0.80;;;;;;;16.44;92.76;100495.56;5076119;28;20252;-73
2022/10/31 02:07:39;;;;;;;0.70;0.70;;;;;;;16.43;93.44;100519.97;5075573;28;20198;-73
2022/10/31 02:10:07;;;;;;;0.80;0.80;;;;;;;16.16;94.53;100498.19;5076105;28;20205;-73
2022/10/31 02:12:35;;;;;;;0.88;0.88;;;;;;;16.26;94.42;100510.44;5074680;28;20738;-73
2022/10/31 02:15:03;;;;;;;0.80;0.80;;;;;;;16.15;94.92;100503.44;5075285;28;20251;-73
2022/10/31 02:17:31;;;;;;;0.70;0.70;;;;;;;16.29;94.23;100505.19;5075143;28;20206;-73
2022/10/31 02:20:10;;;;;;;0.77;0.77;;;;;;;15.87;94.39;100432.00;5079245;28;20214;-73
2022/10/31 02:22:49;;;;;;;0.70;0.70;;;;;;;16.29;94.42;100510.41;5071157;28;20202;-73
2022/10/31 02:25:39;;;;;;;0.85;0.85;;;;;;;16.29;94.37;100517.41;5071895;28;20195;-73
2022/10/31 02:28:34;;;;;;;0.80;0.80;;;;;;;16.22;94.94;100513.91;5073768;28;20210;-73
2022/10/31 02:31:17;;;;;;;0.80;0.80;;;;;;;16.11;96.00;100526.13;5032652;28;20283;-72
2022/10/31 02:33:49;;;;;;;0.88;0.88;;;;;;;15.95;97.56;100532.22;5033450;28;20280;-73
2022/10/31 02:36:26;;;;;;;0.77;0.77;;;;;;;15.76;97.70;100507.81;5032345;28;20199;-73
2022/10/31 02:39:02;;;;;;;0.80;0.80;;;;;;;15.95;98.21;100549.66;5030796;28;20206;-73
2022/10/31 02:41:36;;;;;;;0.80;0.80;;;;;;;15.86;98.61;100556.63;5031894;28;20210;-73
2022/10/31 02:44:09;;;;;;;0.70;0.70;;;;;;;15.82;99.72;100554.00;5032546;28;20686;-73
2022/10/31 02:46:46;;;;;;;0.70;0.70;;;;;;;15.78;100.00;100554.88;5031032;28;20203;-73
2022/10/31 02:49:19;;;;;;;0.70;0.70;;;;;;;15.47;100.00;100519.94;4983880;28;20611;-73
2022/10/31 02:51:46;;;;;;;0.70;0.70;;;;;;;15.08;100.00;100484.13;5032220;28;20674;-73
2022/10/31 02:54:22;;;;;;;1.00;1.00;;;;;;;15.62;100.00;100553.13;5031466;28;20483;-73
2022/10/31 02:56:51;;;;;;;0.80;0.80;;;;;;;15.54;100.00;100557.44;5033460;28;20203;-73
2022/10/31 02:59:18;;;;;;;0.80;0.80;;;;;;;15.40;100.00;100544.31;5030089;28;20230;-73
2022/10/31 03:02:11;;;;;;;0.90;0.90;;;;;;;15.60;100.00;100553.09;5030389;28;20203;-73
2022/10/31 03:05:13;;;;;;;0.80;0.80;;;;;;;15.56;100.00;100561.78;4997460;28;20266;-73
2022/10/31 03:07:48;;;;;;;0.70;0.70;;;;;;;15.44;100.00;100561.75;5042744;28;20997;-73
2022/10/31 03:10:25;;;;;;;0.88;0.88;;;;;;;15.39;100.00;100573.91;5073514;28;20293;-73
2022/10/31 03:13:02;;;;;;;0.80;0.80;;;;;;;15.35;100.00;100559.97;5074445;28;20202;-72
2022/10/31 03:15:33;;;;;;;0.70;0.70;;;;;;;15.44;100.00;100572.19;5076738;28;20206;-73
2022/10/31 03:18:05;;;;;;;0.80;0.80;;;;;;;15.49;100.00;100580.06;5074267;28;20209;-73
2022/10/31 03:20:38;;;;;;;1.38;1.17;;;;;;;15.30;100.00;100566.06;5077039;28;20648;-73
2022/10/31 03:23:10;;;;;;;0.80;0.80;;;;;;;15.24;100.00;100579.94;5080610;28;20206;-73
2022/10/31 03:25:38;;;;;;;0.80;0.80;;;;;;;15.23;100.00;100599.09;5078533;28;20198;-73
2022/10/31 03:28:07;;;;;;;1.70;1.60;;;;;;;15.12;100.00;100595.59;5079948;28;20203;-73
2022/10/31 03:30:39;;;;;;;0.73;0.73;;;;;;;15.04;100.00;100589.44;5075435;28;20198;-73
2022/10/31 03:33:12;;;;;;;0.70;0.70;;;;;;;14.90;100.00;100578.06;5080054;28;20209;-72
2022/10/31 03:35:42;;;;;;;0.65;0.65;;;;;;;14.97;100.00;100610.28;5081707;28;20203;-73
2022/10/31 03:38:10;;;;;;;0.90;0.90;;;;;;;14.91;100.00;100616.34;5077822;28;20673;-73
2022/10/31 03:40:40;;;;;;;0.68;0.68;;;;;;;14.79;100.00;100624.13;5078285;28;20702;-73
2022/10/31 03:43:13;;;;;;;0.70;0.70;;;;;;;14.74;100.00;100623.19;5076133;28;20655;-72
2022/10/31 03:45:44;;;;;;;0.70;0.70;;;;;;;14.39;100.00;100599.47;5044411;28;20635;-73
2022/10/31 03:48:14;;;;;;;0.80;0.80;;;;;;;14.59;100.00;100629.19;5080067;28;20264;-73
2022/10/31 03:50:50;;;;;;;0.80;0.80;;;;;;;14.37;100.00;100614.25;5081305;28;20227;-72
2022/10/31 03:53:23;;;;;;;0.80;0.80;;;;;;;14.43;100.00;100636.88;5076131;28;20672;-73
2022/10/31 03:55:54;;;;;;;0.80;0.80;;;;;;;14.39;100.00;100634.25;5077901;28;20202;-73
2022/10/31 03:58:24;;;;;;;0.80;0.80;;;;;;;14.41;100.00;100623.84;5075702;28;20331;-72
2022/10/31 04:00:53;;;;;;;0.90;0.90;;;;;;;14.38;100.00;100626.41;5075125;28;20652;-73
2022/10/31 04:03:26;;;;;;;0.90;0.90;;;;;;;14.39;100.00;100617.72;5042010;28;20190;-73
2022/10/31 04:05:57;;;;;;;0.80;0.80;;;;;;;14.33;100.00;100610.69;5080101;28;20198;-73
2022/10/31 04:08:29;;;;;;;0.88;0.88;;;;;;;14.44;100.00;100615.16;5075490;28;20203;-73
2022/10/31 04:10:58;;;;;;;0.70;0.70;;;;;;;14.22;100.00;100581.03;5074342;28;20267;-73
2022/10/31 04:13:29;;;;;;;1.17;1.17;;;;;;;14.35;100.00;100602.91;5078321;28;20186;-73
2022/10/31 04:15:57;;;;;;;3.63;3.40;;;;;;;14.39;100.00;100626.44;5079788;28;20340;-72
2022/10/31 04:18:26;;;;;;;0.70;0.70;;;;;;;14.47;100.00;100618.66;5076283;28;20206;-73
2022/10/31 04:21:01;;;;;;;0.80;0.80;;;;;;;14.51;100.00;100625.66;5078960;28;20221;-72
2022/10/31 04:23:29;;;;;;;0.90;0.90;;;;;;;14.41;100.00;100626.47;5075407;28;20637;-73
2022/10/31 04:25:56;;;;;;;0.80;0.80;;;;;;;14.43;100.00;100632.53;5078152;28;20253;-73
2022/10/31 04:28:23;;;;;;;0.80;0.80;;;;;;;14.41;100.00;100634.28;5063361;28;20251;-73
2022/10/31 04:30:49;;;;;;;0.82;0.82;;;;;;;14.32;100.00;100624.59;5077607;28;20251;-74
2022/10/31 04:33:16;;;;;;;0.80;0.80;;;;;;;14.43;100.00;100636.88;5077081;28;20650;-73
2022/10/31 04:35:44;;;;;;;0.80;0.80;;;;;;;14.09;100.00;100552.25;5081217;28;20199;-73
2022/10/31 04:38:11;;;;;;;0.70;0.70;;;;;;;14.30;100.00;100597.59;5081241;28;20611;-80
2022/10/31 04:40:38;;;;;;;0.80;0.80;;;;;;;14.10;100.00;100538.31;5083913;28;20219;-84
2022/10/31 04:43:05;;;;;;;0.90;0.90;;;;;;;14.50;100.00;100604.75;5085869;28;20579;-71
2022/10/31 04:45:32;;;;;;;0.80;0.80;;;;;;;14.52;100.00;100611.72;5024815;28;20190;-71
2022/10/31 04:47:58;;;;;;;0.70;0.70;;;;;;;14.47;100.00;100586.47;5080405;28;20199;-72
2022/10/31 04:50:25;;;;;;;0.70;0.70;;;;;;;14.65;100.00;100636.19;5077785;28;20234;-73
2022/10/31 04:52:53;;;;;;;0.70;0.70;;;;;;;14.93;100.00;100645.97;5079138;28;20194;-71
2022/10/31 04:55:20;;;;;;;0.90;0.90;;;;;;;14.65;100.00;100612.72;5075883;28;20216;-73
2022/10/31 04:57:48;;;;;;;0.75;0.75;;;;;;;14.85;100.00;100617.19;5077867;28;20701;-73
2022/10/31 05:00:18;;;;;;;0.85;0.85;;;;;;;15.03;100.00;100647.75;5076719;28;20249;-75
2022/10/31 05:02:45;;;;;;;1.15;1.15;;;;;;;15.04;100.00;100646.03;5075635;28;20195;-74
2022/10/31 05:05:12;;;;;;;0.80;0.80;;;;;;;15.50;100.00;100634.09;5074734;28;20203;-73
2022/10/31 05:07:41;;;;;;;0.70;0.70;;;;;;;15.47;100.00;100655.84;5076769;28;20214;-74
2022/10/31 05:10:10;;;;;;;0.98;0.98;;;;;;;15.47;100.00;100649.72;5075305;28;20622;-74
2022/10/31 05:12:37;;;;;;;1.75;1.65;;;;;;;15.14;100.00;100640.00;5077257;28;20295;-73
2022/10/31 05:15:05;;;;;;;0.90;0.90;;;;;;;15.43;100.00;100658.44;5079633;28;20625;-72
2022/10/31 05:17:32;;;;;;;0.80;0.80;;;;;;;15.33;100.00;100653.16;5075162;28;20211;-74
2022/10/31 05:19:59;;;;;;;0.70;0.70;;;;;;;15.38;100.00;100666.22;5078705;28;20229;-73
2022/10/31 05:22:26;;;;;;;0.85;0.85;;;;;;;15.40;100.00;100659.28;5075079;28;20202;-72
2022/10/31 05:24:53;;;;;;;0.90;0.90;;;;;;;15.55;100.00;100663.75;5076182;28;20206;-74
2022/10/31 05:27:21;;;;;;;0.80;0.80;;;;;;;15.69;100.00;100664.69;5077219;28;20210;-72
2022/10/31 05:29:47;;;;;;;0.70;0.70;;;;;;;15.51;100.00;100667.22;5055626;28;20281;-71
2022/10/31 05:32:14;;;;;;;1.08;1.08;;;;;;;15.59;100.00;100668.13;5069733;28;20206;-72
2022/10/31 05:34:41;;;;;;;0.77;0.77;;;;;;;15.66;100.00;100656.81;5078352;28;20203;-72
2022/10/31 05:37:08;;;;;;;1.08;1.08;;;;;;;15.90;100.00;100677.81;5081270;28;21894;-70
2022/10/31 05:39:34;;;;;;;0.70;0.70;;;;;;;15.97;100.00;100674.34;5070172;28;20199;-71
2022/10/31 05:42:01;;;;;;;0.60;0.60;;;;;;;16.08;100.00;100683.09;5072587;28;20219;-74
2022/10/31 05:44:29;;;;;;;0.80;0.80;;;;;;;16.29;100.00;100677.91;5072006;28;20697;-70
2022/10/31 05:46:56;;;;;;;0.70;0.70;;;;;;;15.84;100.00;100610.66;5072669;28;20206;-69
2022/10/31 05:49:23;;;;;;;0.80;0.80;;;;;;;16.41;99.45;100687.50;5077406;28;20623;-73
2022/10/31 05:51:50;;;;;;;0.82;0.82;;;;;;;16.46;97.63;100684.88;5074896;28;20313;-72
2022/10/31 05:54:17;;;;;;;0.70;0.70;;;;;;;16.73;96.14;100693.66;5076395;28;20206;-73
2022/10/31 05:56:43;;;;;;;0.80;0.80;;;;;;;16.68;94.89;100668.34;5076533;28;20211;-73
2022/10/31 05:59:10;;;;;;;0.75;0.75;;;;;;;16.40;93.21;100627.31;5076186;28;20214;-72
2022/10/31 06:01:38;;;;;;;0.80;0.80;;;;;;;17.11;94.52;100698.88;5074678;28;20241;-71
2022/10/31 06:04:05;;;;;;;0.85;0.85;;;;;;;17.27;93.00;100705.81;5074988;28;20213;-72
2022/10/31 06:06:32;;;;;;;0.80;0.80;;;;;;;17.52;92.36;100708.34;5080959;28;20259;-72
2022/10/31 06:08:59;;;;;;;2.15;2.05;;;;;;;17.70;89.40;100692.59;5071792;28;20210;-72
2022/10/31 06:11:25;;;;;;;0.88;0.88;;;;;;;17.88;87.87;100707.38;5083639;28;20209;-73
2022/10/31 06:13:52;;;;;;;1.23;1.23;;;;;;;17.99;85.82;100701.22;5073186;28;20207;-71
2022/10/31 06:16:19;;;;;;;0.90;0.90;;;;;;;18.17;84.79;100715.97;5071241;28;20198;-70
2022/10/31 06:18:49;;;;;;;0.80;0.80;;;;;;;18.26;83.67;100722.03;5072408;28;20221;-71
2022/10/31 06:21:16;;;;;;;0.70;0.70;;;;;;;17.68;86.91;100721.47;5079812;28;20218;-72
2022/10/31 06:23:43;;;;;;;0.60;0.60;;;;;;;17.57;87.44;100717.13;5048015;28;20207;-73
2022/10/31 06:26:09;;;;;;;0.80;0.80;;;;;;;17.62;88.19;100726.72;5071050;28;20206;-73
2022/10/31 06:28:36;;;;;;;0.90;0.90;;;;;;;17.46;87.88;100731.97;5071053;28;20202;-71
2022/10/31 06:31:03;;;;;;;0.70;0.70;;;;;;;17.30;89.09;100725.94;5070841;28;20662;-72
2022/10/31 06:33:30;;;;;;;0.70;0.70;;;;;;;17.10;95.64;100707.59;5071080;28;20202;-72
2022/10/31 06:35:58;;;;;;;0.90;0.90;;;;;;;17.30;92.03;100725.94;5070998;28;20613;-71
2022/10/31 06:38:26;;;;;;;0.70;0.70;;;;;;;17.24;91.73;100721.53;5070909;28;20199;-72
2022/10/31 06:40:53;;;;;;;3.40;3.20;;;;;;;17.16;91.14;100701.47;5063490;28;20235;-72
2022/10/31 06:43:20;;;;;;;0.80;0.80;;;;;;;17.24;90.50;100718.94;5064713;28;20204;-70
2022/10/31 06:45:47;;;;;;;1.20;1.20;;;;;;;17.22;91.43;100711.94;5062463;28;20199;-71
2022/10/31 06:48:14;;;;;;;0.90;0.90;;;;;;;17.35;91.37;100732.88;5067421;28;20324;-73
2022/10/31 06:50:40;;;;;;;0.70;0.70;;;;;;;17.38;91.24;100726.75;5054439;28;20235;-73
2022/10/31 06:53:09;;;;;;;0.70;0.70;;;;;;;17.40;91.64;100727.66;5068273;28;20534;-73
2022/10/31 06:55:35;;;;;;;0.73;0.73;;;;;;;17.26;92.26;100732.03;5069263;28;20198;-72
2022/10/31 06:58:02;;;;;;;0.80;0.80;;;;;;;17.32;92.58;100729.41;5063865;28;20195;-72
2022/10/31 07:00:31;;;;;;;0.90;0.90;;;;;;;17.44;91.96;100728.50;5059653;28;20241;-72
2022/10/31 07:03:00;;;;;;;0.70;0.70;;;;;;;17.45;90.19;100727.59;5065499;28;20210;-72
2022/10/31 07:05:27;;;;;;;0.80;0.80;;;;;;;17.56;89.97;100738.94;5050642;28;20203;-72
2022/10/31 07:07:55;;;;;;;0.70;0.70;;;;;;;17.62;90.15;100738.97;5065380;28;20206;-72
2022/10/31 07:10:24;;;;;;;0.80;0.80;;;;;;;17.59;90.77;100720.59;5069073;28;20738;-72
2022/10/31 07:12:55;;;;;;;1.02;1.02;;;;;;;17.43;90.86;100747.72;5048726;28;20202;-74
2022/10/31 07:15:22;;;;;;;1.50;1.50;;;;;;;17.44;90.29;100745.13;5068993;28;20276;-72
2022/10/31 07:17:49;;;;;;;0.70;0.70;;;;;;;17.13;88.79;100704.97;5069372;28;20670;-73
2022/10/31 07:20:16;;;;;;;0.80;0.80;;;;;;;17.56;90.07;100744.19;5068830;28;20199;-72
2022/10/31 07:22:43;;;;;;;0.68;0.68;;;;;;;17.64;90.03;100747.69;5056332;28;20227;-73
2022/10/31 07:25:10;;;;;;;0.60;0.60;;;;;;;17.84;88.94;100761.63;5047751;28;20202;-73
2022/10/31 07:27:39;;;;;;;0.80;0.80;;;;;;;18.03;87.46;100762.41;5069402;28;20675;-73
2022/10/31 07:30:08;;;;;;;0.80;0.80;;;;;;;17.96;87.68;100730.09;5055420;28;20275;-72
2022/10/31 07:32:41;;;;;;;0.77;0.77;;;;;;;18.33;85.79;100754.41;5069372;28;20321;-74
2022/10/31 07:35:08;;;;;;;1.38;1.38;;;;;;;18.28;86.00;100751.78;5066865;28;20210;-72
2022/10/31 07:37:35;;;;;;;0.95;0.95;;;;;;;18.23;83.43;100750.94;5039638;28;20203;-72
2022/10/31 07:40:02;;;;;;;0.80;0.80;;;;;;;17.96;83.00;100672.34;5058674;28;20207;-72
2022/10/31 07:42:29;;;;;;;0.70;0.70;;;;;;;18.56;83.59;100725.38;5067958;28;20218;-72
2022/10/31 07:44:57;;;;;;;0.70;0.70;;;;;;;18.99;81.49;100745.19;5069152;28;21025;-73
2022/10/31 07:47:24;;;;;;;0.80;0.80;;;;;;;19.01;80.50;100726.78;5069040;28;20256;-72
2022/10/31 07:49:50;;;;;;;1.13;1.13;;;;;;;19.07;78.46;100705.69;5069391;28;20687;-72
2022/10/31 07:52:17;;;;;;;0.70;0.70;;;;;;;19.28;79.02;100740.53;5069252;28;20191;-73
2022/10/31 07:54:44;;;;;;;2.85;2.65;;;;;;;19.44;77.75;100737.78;5069515;28;20662;-72
2022/10/31 07:57:11;;;;;;;1.23;1.23;;;;;;;19.59;75.15;100742.84;5069068;28;20679;-72
2022/10/31 07:59:37;;;;;;;0.60;0.60;;;;;;;19.49;74.98;100731.56;5069336;28;20635;-73
2022/10/31 08:02:06;;;;;;;0.90;0.90;;;;;;;19.89;74.04;100752.16;5069305;28;20222;-74
2022/10/31 08:04:32;;;;;;;0.80;0.80;;;;;;;19.63;75.19;100739.31;5066179;28;20212;-72
2022/10/31 08:06:59;;;;;;;0.90;0.90;;;;;;;19.63;73.99;100763.88;5051711;28;20215;-72
2022/10/31 08:09:26;;;;;;;1.33;1.33;;;;;;;19.55;74.67;100763.06;5066593;28;20199;-72
2022/10/31 08:11:54;;;;;;;0.73;0.73;;;;;;;19.78;74.05;100757.56;5059897;28;20279;-72
2022/10/31 08:14:22;;;;;;;0.70;0.70;;;;;;;19.63;74.33;100713.00;5053586;28;20194;-71
2022/10/31 08:16:49;;;;;;;0.82;0.82;;;;;;;20.12;72.69;100756.25;5072422;28;20199;-73
2022/10/31 08:19:17;;;;;;;0.70;0.70;;;;;;;20.45;70.86;100769.88;5072535;28;20198;-72
2022/10/31 08:21:43;;;;;;;0.60;0.60;;;;;;;20.58;71.07;100774.94;5057200;28;20678;-72
2022/10/31 08:24:10;;;;;;;0.80;0.80;;;;;;;20.49;72.11;100755.75;5051837;28;20690;-72
2022/10/31 08:26:37;;;;;;;0.70;0.70;;;;;;;20.86;70.22;100758.72;5046658;28;20207;-73
2022/10/31 08:29:04;;;;;;;0.88;0.88;;;;;;;21.06;67.74;100757.50;5057519;28;20261;-72
2022/10/31 08:31:31;;;;;;;0.70;0.70;;;;;;;21.15;66.95;100762.63;5066858;28;20203;-72
2022/10/31 08:33:57;;;;;;;0.80;0.80;;;;;;;21.06;67.23;100728.47;5072169;28;20202;-73
2022/10/31 08:36:26;;;;;;;0.80;0.80;;;;;;;21.51;66.79;100773.44;5068959;28;20210;-73
2022/10/31 08:38:53;;;;;;;4.28;1.63;;;;;;;21.42;66.26;100769.19;5069775;28;20260;-73
2022/10/31 08:41:19;;;;;;;1.00;1.00;;;;;;;21.16;66.81;100769.66;5068277;28;20967;-72
2022/10/31 08:43:46;;;;;;;0.68;0.68;;;;;;;21.31;65.77;100754.44;5070097;28;20209;-72
2022/10/31 08:46:13;;;;;;;0.85;0.85;;;;;;;21.29;65.61;100743.94;5072086;28;20243;-72
2022/10/31 08:48:40;;;;;;;1.00;1.00;;;;;;;21.43;64.38;100754.22;5071758;28;20202;-72
2022/10/31 08:51:07;;;;;;;0.82;0.82;;;;;;;21.56;63.55;100761.00;5071975;28;20222;-73
2022/10/31 08:53:35;;;;;;;0.70;0.70;;;;;;;21.68;62.58;100753.75;5071686;28;20199;-73
2022/10/31 08:56:02;;;;;;;0.70;0.70;;;;;;;21.48;63.04;100755.88;5069305;28;20201;-73
2022/10/31 08:58:29;;;;;;;0.80;0.80;;;;;;;21.32;64.03;100753.56;5057086;28;20283;-73
2022/10/31 09:00:58;;;;;;;0.90;0.90;;;;;;;21.19;64.30;100766.06;5060232;28;20204;-75
2022/10/31 09:03:28;;;;;;;1.00;1.00;;;;;;;21.44;69.07;100769.19;5046539;28;20198;-73
2022/10/31 09:05:57;;;;;;;0.80;0.80;;;;;;;21.07;65.80;100732.88;5060716;28;20207;-72
2022/10/31 09:08:24;;;;;;;0.73;0.73;;;;;;;21.11;64.12;100749.53;5057204;28;20218;-72
2022/10/31 09:10:52;;;;;;;0.80;0.80;;;;;;;21.07;64.68;100769.78;5062463;28;20204;-72
2022/10/31 09:13:20;;;;;;;0.82;0.82;;;;;;;21.06;64.92;100772.44;5066426;28;20267;-73
2022/10/31 09:15:49;;;;;;;0.70;0.70;;;;;;;21.02;65.20;100766.34;5071268;28;20210;-73
2022/10/31 09:18:17;;;;;;;1.17;1.17;;;;;;;20.93;65.69;100771.78;5065888;28;20565;-72
2022/10/31 09:20:46;;;;;;;1.13;1.13;;;;;;;21.02;65.33;100766.34;5062530;28;20207;-72
2022/10/31 09:23:14;;;;;;;1.02;1.02;;;;;;;20.98;65.72;100767.28;5067600;28;20215;-74
2022/10/31 09:25:42;;;;;;;0.88;0.88;;;;;;;20.99;65.46;100769.03;5051449;28;20212;-73
2022/10/31 09:28:12;;;;;;;0.90;0.90;;;;;;;21.25;64.99;100755.44;5068325;28;20240;-73
2022/10/31 09:30:40;;;;;;;1.10;1.10;;;;;;;21.29;65.90;100748.34;5071688;28;20203;-73
2022/10/31 09:33:10;;;;;;;0.90;0.90;;;;;;;21.24;64.15;100751.94;5071240;28;20203;-74
2022/10/31 09:35:37;;;;;;;0.95;0.95;;;;;;;21.14;64.56;100745.09;5071487;28;20198;-74
2022/10/31 09:38:05;;;;;;;1.08;0.82;;;;;;;21.60;63.34;100752.16;5071971;28;20726;-73
2022/10/31 09:40:36;;;;;;;1.15;1.15;;;;;;;21.50;62.86;100758.50;5071295;28;20202;-73
2022/10/31 09:43:15;;;;;;;0.70;0.70;;;;;;;21.66;63.19;100746.72;5070874;28;20710;-73
2022/10/31 09:45:52;;;;;;;0.80;0.80;;;;;;;22.23;60.42;100748.19;5071113;28;20829;-74
2022/10/31 09:48:36;;;;;;;0.70;0.70;;;;;;;22.15;59.46;100696.47;5071482;28;20198;-73
2022/10/31 09:51:08;;;;;;;0.80;0.80;;;;;;;22.61;58.28;100746.47;5070980;28;20254;-73
2022/10/31 09:53:40;;;;;;;0.90;0.90;;;;;;;22.88;56.79;100722.03;5071803;28;20202;-73
2022/10/31 09:56:10;;;;;;;0.70;0.70;;;;;;;22.92;56.03;100750.13;5071805;28;20293;-72
2022/10/31 09:58:43;;;;;;;0.77;0.77;;;;;;;23.25;55.46;100739.59;5071303;28;20588;-74
2022/10/31 10:01:24;;;;;;;0.70;0.70;;;;;;;23.15;54.37;100678.97;5070877;28;20230;-75
2022/10/31 10:03:55;;;;;;;2.03;1.90;;;;;;;23.35;54.31;100726.09;5035890;28;20201;-72
2022/10/31 10:06:28;;;;;;;0.70;0.70;;;;;;;23.58;53.77;100712.25;5070880;28;20210;-74
2022/10/31 10:08:56;;;;;;;0.80;0.80;;;;;;;23.09;54.59;100732.06;5036285;28;20206;-74
2022/10/31 10:11:37;;;;;;;0.70;0.70;;;;;;;23.15;54.48;100733.69;5041966;28;20200;-72
2022/10/31 10:14:19;;;;;;;0.90;0.90;;;;;;;23.56;54.67;100733.47;5053958;28;20202;-72
2022/10/31 10:17:08;;;;;;;0.88;0.88;;;;;;;23.53;53.24;100719.44;5050782;28;20203;-75
2022/10/31 10:20:00;;;;;;;0.82;0.82;;;;;;;23.65;53.43;100708.53;5057128;28;20203;-72
2022/10/31 10:22:38;;;;;;;0.90;0.90;;;;;;;24.07;52.66;100728.47;5059870;28;20226;-72
2022/10/31 10:25:16;;;;;;;0.70;0.70;;;;;;;24.41;51.41;100723.00;5070505;28;20198;-73
2022/10/31 10:27:51;;;;;;;0.80;0.80;;;;;;;24.40;50.51;100720.44;5070524;28;20198;-71
2022/10/31 10:30:22;;;;;;;0.85;0.85;;;;;;;24.37;50.52;100704.59;5052075;28;20670;-72
2022/10/31 10:32:52;;;;;;;0.98;0.98;;;;;;;24.25;50.45;100705.88;5059956;28;20210;-72
2022/10/31 10:35:25;;;;;;;0.85;0.85;;;;;;;24.64;50.17;100722.28;5067080;28;20682;-74
2022/10/31 10:37:57;;;;;;;1.58;1.02;;;;;;;24.63;49.74;100723.19;5036414;28;20203;-71
2022/10/31 10:40:26;;;;;;;0.70;0.70;;;;;;;24.80;49.91;100717.31;5070484;28;20235;-71
2022/10/31 10:48:44;;;;;;;0.70;0.70;;;;;;;25.15;49.16;100715.25;5062217;28;20255;-72
2022/10/31 10:51:21;;;;;;;0.80;0.80;;;;;;;25.06;49.10;100699.66;5051156;28;20238;-72
2022/10/31 10:54:01;;;;;;;1.52;1.50;;;;;;;24.71;50.12;100723.81;5050290;28;20434;-72
2022/10/31 10:56:42;;;;;;;1.25;1.15;;;;;;;24.92;49.71;100709.00;5050271;28;20225;-72
2022/10/31 10:59:12;;;;;;;1.00;1.00;;;;;;;25.07;49.01;100712.00;5050195;28;21594;-72
2022/10/31 11:01:42;;;;;;;0.63;0.63;;;;;;;24.89;48.67;100648.97;5050260;28;20269;-71
2022/10/31 11:04:29;;;;;;;0.65;0.65;;;;;;;25.33;48.78;100708.41;5050133;28;20195;-72
2022/10/31 11:07:00;;;;;;;0.80;0.80;;;;;;;25.40;47.72;100717.06;5008383;28;20196;-72
2022/10/31 11:09:27;;;;;;;1.20;1.10;;;;;;;25.07;48.26;100688.13;5008073;28;20208;-72
2022/10/31 11:11:55;;;;;;;0.95;0.95;;;;;;;25.02;49.33;100705.97;5008262;28;20212;-72
2022/10/31 11:14:23;;;;;;;0.90;0.90;;;;;;;25.03;49.02;100697.09;5007919;28;20681;-71
2022/10/31 11:16:54;;;;;;;0.93;0.93;;;;;;;24.99;48.40;100691.94;5008540;28;20695;-71
2022/10/31 11:19:25;;;;;;;1.05;1.05;;;;;;;24.78;48.85;100656.38;5008300;28;20197;-71
2022/10/31 11:21:52;;;;;;;0.80;0.80;;;;;;;24.78;48.80;100666.13;4959731;28;20232;-73
2022/10/31 11:24:20;;;;;;;0.88;0.88;;;;;;;25.09;48.34;100691.56;5008202;28;20196;-73
2022/10/31 11:26:49;;;;;;;0.98;0.95;;;;;;;24.97;48.82;100691.16;5008385;28;20204;-72
2022/10/31 11:29:21;;;;;;;0.80;0.80;;;;;;;24.93;49.29;100679.78;5007967;28;20227;-72
2022/10/31 11:31:51;;;;;;;0.90;0.90;;;;;;;24.29;49.84;100637.72;5007979;28;20712;-74
2022/10/31 11:34:30;;;;;;;0.90;0.90;;;;;;;24.82;49.19;100681.03;4959369;28;20193;-72
2022/10/31 11:37:04;;;;;;;0.98;0.98;;;;;;;24.88;49.08;100680.84;4959525;28;20212;-74
2022/10/31 11:39:31;;;;;;;0.80;0.80;;;;;;;24.64;49.10;100682.50;5007825;28;20196;-73
2022/10/31 11:42:02;;;;;;;0.93;0.93;;;;;;;24.82;48.82;100665.09;5010758;28;20229;-73